Time;durP1;ratioP1;P1;durP2;ratioP2;P2;SDS_P1;SDS_P2;PMS_P1;PMS_P2;Temp;Humidity;BMP_temperature;BMP_pressure;BME280_temperature;BME280_humidity;BME280_pressure;Samples;Min_cycle;Max_cycle;Signal;HPM_P1;HPM_P2
2021/08/21 00:00:18;;;;;;;6.22;2.53;;;;;;;21.13;72.84;101034.94;5102494;28;20032;-68
2021/08/21 00:02:43;;;;;;;7.15;2.88;;;;;;;21.13;72.84;101027.75;5107265;28;20035;-68
2021/08/21 00:05:10;;;;;;;6.20;2.35;;;;;;;21.13;72.95;101035.75;5106824;28;20027;-68
2021/08/21 00:07:36;;;;;;;5.47;2.83;;;;;;;21.13;73.18;101035.75;5099947;28;20039;-68
2021/08/21 00:10:07;;;;;;;6.15;2.53;;;;;;;21.13;72.92;101032.28;5105423;28;20485;-68
2021/08/21 00:12:33;;;;;;;7.20;2.75;;;;;;;21.13;73.00;101037.59;5108390;28;20499;-69
2021/08/21 00:14:59;;;;;;;6.15;2.47;;;;;;;21.13;72.65;101037.59;5088157;28;20138;-68
2021/08/21 00:17:25;;;;;;;6.53;2.47;;;;;;;21.13;72.74;101046.44;5104250;28;20024;-68
2021/08/21 00:19:51;;;;;;;5.78;2.70;;;;;;;21.13;72.63;101045.59;5088788;28;20606;-68
2021/08/21 00:22:17;;;;;;;4.63;2.13;;;;;;;21.11;72.87;101037.81;5104559;28;20030;-68
2021/08/21 00:24:43;;;;;;;6.20;2.70;;;;;;;21.12;72.87;101034.13;5097708;28;20130;-68
2021/08/21 00:27:08;;;;;;;5.40;2.30;;;;;;;21.12;72.84;101035.97;5091975;28;20047;-68
2021/08/21 00:29:34;;;;;;;5.70;2.80;;;;;;;21.13;72.74;101042.94;5093086;28;20038;-67
2021/08/21 00:32:00;;;;;;;4.63;2.33;;;;;;;21.12;72.61;101033.28;5111316;28;20434;-68
2021/08/21 00:34:26;;;;;;;5.18;2.17;;;;;;;21.12;72.33;101027.97;5106962;28;20028;-68
2021/08/21 00:36:51;;;;;;;5.53;2.67;;;;;;;21.12;72.72;101036.78;5112059;28;20028;-68
2021/08/21 00:39:17;;;;;;;3.80;1.98;;;;;;;21.12;72.87;101033.28;5108309;28;20494;-68
2021/08/21 00:41:43;;;;;;;6.07;1.92;;;;;;;21.12;72.69;101033.28;5104020;28;20535;-68
2021/08/21 00:44:09;;;;;;;6.30;2.30;;;;;;;21.11;72.46;101029.81;5100099;28;20110;-68
2021/08/21 00:47:15;;;;;;;5.43;2.17;;;;;;;21.05;72.64;101035.13;5111389;28;20483;-68
2021/08/21 00:49:42;;;;;;;6.55;2.20;;;;;;;21.10;72.75;101024.69;5025392;28;20159;-67
2021/08/21 00:52:11;;;;;;;5.07;1.92;;;;;;;21.10;72.30;101025.50;5026731;28;20037;-69
2021/08/21 00:54:39;;;;;;;5.55;1.90;;;;;;;21.10;72.74;101030.84;5069644;28;20114;-68
2021/08/21 00:57:04;;;;;;;4.85;2.00;;;;;;;21.11;72.56;101026.31;5109736;28;20035;-68
2021/08/21 00:59:34;;;;;;;3.95;1.83;;;;;;;21.09;72.15;101031.03;5091654;28;20048;-68
2021/08/21 01:02:01;;;;;;;4.10;1.90;;;;;;;21.10;72.53;101024.69;5097671;28;20409;-67
2021/08/21 01:04:26;;;;;;;3.67;1.75;;;;;;;21.09;72.72;101029.19;5105050;28;20042;-67
2021/08/21 01:06:52;;;;;;;4.10;1.80;;;;;;;21.09;72.51;101037.19;5106410;28;20031;-67
2021/08/21 01:09:17;;;;;;;4.95;2.08;;;;;;;21.10;72.31;101046.84;5100867;28;20114;-67
2021/08/21 01:11:44;;;;;;;5.43;2.10;;;;;;;21.09;72.16;101042.53;5107342;28;20111;-68
2021/08/21 01:14:10;;;;;;;3.25;1.83;;;;;;;21.10;72.29;101038.00;5088957;28;20055;-67
2021/08/21 01:16:36;;;;;;;4.22;2.22;;;;;;;21.10;72.43;101048.69;5110697;28;20115;-67
2021/08/21 01:19:03;;;;;;;4.18;2.20;;;;;;;21.09;72.36;101050.53;5105221;28;20454;-67
2021/08/21 01:21:28;;;;;;;3.63;1.88;;;;;;;21.09;72.14;101047.03;5089518;28;20324;-67
2021/08/21 01:23:54;;;;;;;5.05;2.08;;;;;;;21.09;72.18;101050.53;5087888;28;20039;-67
2021/08/21 01:26:19;;;;;;;4.38;1.95;;;;;;;21.09;72.26;101055.03;5096168;28;20082;-67
2021/08/21 01:28:45;;;;;;;3.67;2.03;;;;;;;21.09;72.25;101045.19;5091779;28;20532;-67
2021/08/21 01:31:10;;;;;;;5.32;2.05;;;;;;;21.10;72.33;101048.69;5107802;28;20081;-67
2021/08/21 01:33:37;;;;;;;4.68;2.25;;;;;;;21.10;72.28;101044.16;5108510;28;20471;-67
2021/08/21 01:36:04;;;;;;;3.95;2.00;;;;;;;21.10;72.05;101046.03;5105897;28;20282;-67
2021/08/21 01:38:30;;;;;;;3.33;1.83;;;;;;;21.09;72.33;101047.88;5099359;28;20132;-67
2021/08/21 01:40:56;;;;;;;3.58;1.65;;;;;;;21.09;72.25;101047.88;5101101;28;20111;-67
2021/08/21 01:43:23;;;;;;;4.15;1.90;;;;;;;21.09;71.82;101041.72;5103813;28;20028;-67
2021/08/21 01:45:49;;;;;;;3.33;1.67;;;;;;;21.10;72.27;101030.00;5109342;28;20035;-67
2021/08/21 01:48:18;;;;;;;5.30;2.25;;;;;;;21.08;72.04;101030.22;5108069;28;20032;-67
2021/08/21 01:50:44;;;;;;;3.65;1.70;;;;;;;21.09;71.99;101039.88;5110384;28;20504;-67
2021/08/21 01:53:13;;;;;;;3.13;1.50;;;;;;;21.08;71.98;101040.88;5108683;28;20032;-68
2021/08/21 01:55:40;;;;;;;4.10;1.83;;;;;;;21.08;71.94;101037.41;5089855;28;20642;-67
2021/08/21 01:58:06;;;;;;;4.30;2.05;;;;;;;21.09;71.79;101033.72;5108926;28;20042;-67
2021/08/21 02:00:31;;;;;;;4.40;1.83;;;;;;;21.09;72.18;101028.38;5107873;28;20023;-67
2021/08/21 02:02:58;;;;;;;3.85;2.00;;;;;;;21.08;71.80;101022.22;5109219;28;20069;-67
2021/08/21 02:05:24;;;;;;;4.25;1.85;;;;;;;21.09;71.82;101023.03;5104599;28;20482;-67
2021/08/21 02:07:51;;;;;;;3.53;1.80;;;;;;;21.08;72.03;101024.06;5110140;28;20023;-67
2021/08/21 02:10:21;;;;;;;3.58;1.92;;;;;;;21.08;72.15;101029.41;5107970;28;20031;-67
2021/08/21 02:12:47;;;;;;;4.20;2.05;;;;;;;21.08;71.85;101024.88;5108674;28;20065;-67
2021/08/21 02:15:15;;;;;;;3.42;1.77;;;;;;;21.08;71.88;101026.72;5109352;28;20027;-67
2021/08/21 02:17:41;;;;;;;3.60;1.77;;;;;;;21.08;72.03;101024.06;5103864;28;20513;-67
2021/08/21 02:20:12;;;;;;;3.15;1.50;;;;;;;21.08;71.95;101019.53;5109291;28;20044;-67
2021/08/21 02:22:45;;;;;;;3.50;1.83;;;;;;;21.05;71.56;101014.63;5089312;28;20126;-67
2021/08/21 02:25:12;;;;;;;3.85;1.90;;;;;;;21.08;71.58;101018.72;5109486;28;20032;-67
2021/08/21 02:27:45;;;;;;;3.22;1.52;;;;;;;21.07;71.80;101020.56;5106809;28;20733;-67
2021/08/21 02:30:11;;;;;;;3.13;1.50;;;;;;;21.07;71.84;101020.56;5108899;28;20043;-68
2021/08/21 02:32:36;;;;;;;3.08;1.70;;;;;;;21.05;71.55;101019.97;5088770;28;20048;-67
2021/08/21 02:35:03;;;;;;;3.05;1.50;;;;;;;21.07;71.58;101027.75;5108064;28;20055;-67
2021/08/21 02:37:28;;;;;;;3.70;1.80;;;;;;;21.06;71.92;101020.78;5109080;28;20039;-67
2021/08/21 02:39:54;;;;;;;3.28;1.50;;;;;;;21.06;71.80;101023.44;5090299;28;20292;-67
2021/08/21 02:42:20;;;;;;;3.60;1.73;;;;;;;21.07;71.57;101023.25;5100040;28;20381;-67
2021/08/21 02:44:46;;;;;;;3.85;1.48;;;;;;;21.04;71.62;101018.31;5089706;28;20031;-67
2021/08/21 02:47:11;;;;;;;2.90;1.85;;;;;;;21.06;71.67;101018.13;5089920;28;20031;-69
2021/08/21 02:49:37;;;;;;;4.18;1.48;;;;;;;21.04;71.59;101018.31;5088814;28;20035;-68
2021/08/21 02:52:03;;;;;;;3.25;1.67;;;;;;;21.05;71.53;101016.47;5109699;28;20760;-67
2021/08/21 02:54:29;;;;;;;3.00;1.40;;;;;;;21.04;71.83;101018.31;5108286;28;20039;-67
2021/08/21 02:56:54;;;;;;;3.63;1.52;;;;;;;21.05;71.65;101016.47;5106952;28;20085;-67
2021/08/21 02:59:20;;;;;;;3.40;1.58;;;;;;;21.05;71.72;101017.28;5107340;28;20462;-67
2021/08/21 03:01:46;;;;;;;3.47;1.60;;;;;;;21.05;71.58;101017.28;5102881;28;20119;-67
2021/08/21 03:04:12;;;;;;;3.38;1.50;;;;;;;21.04;71.97;101012.97;5089478;28;20493;-68
2021/08/21 03:06:37;;;;;;;4.00;1.73;;;;;;;21.05;71.78;101017.28;5107609;28;20080;-67
2021/08/21 03:09:03;;;;;;;3.60;1.83;;;;;;;21.05;71.60;101016.47;5108828;28;20047;-67
2021/08/21 03:11:29;;;;;;;2.90;1.52;;;;;;;21.05;71.80;101016.47;5107797;28;20055;-67
2021/08/21 03:13:54;;;;;;;4.50;1.55;;;;;;;21.05;71.54;101011.97;5106866;28;20020;-67
2021/08/21 03:16:19;;;;;;;3.50;1.80;;;;;;;21.05;71.38;101008.47;5106267;28;20049;-67
2021/08/21 03:18:45;;;;;;;2.42;1.50;;;;;;;21.05;71.62;101011.97;5105396;28;20430;-67
2021/08/21 03:21:10;;;;;;;3.28;1.35;;;;;;;21.05;71.87;101011.13;5099664;28;20028;-67
2021/08/21 03:23:38;;;;;;;2.95;1.70;;;;;;;21.04;71.76;101002.31;5108402;28;20032;-67
2021/08/21 03:26:04;;;;;;;3.00;1.50;;;;;;;21.05;71.51;100997.78;5089036;28;20051;-67
2021/08/21 03:28:29;;;;;;;2.97;1.50;;;;;;;21.05;71.73;100997.78;5106948;28;20051;-67
2021/08/21 03:30:55;;;;;;;3.58;1.95;;;;;;;21.05;71.83;100989.78;5101450;28;20039;-67
2021/08/21 03:33:20;;;;;;;2.95;1.50;;;;;;;21.04;71.46;100988.97;5101321;28;20487;-67
2021/08/21 03:35:46;;;;;;;2.97;1.45;;;;;;;21.05;71.84;100989.78;5089432;28;20050;-67
2021/08/21 03:38:13;;;;;;;3.30;1.60;;;;;;;21.05;71.47;100995.13;5106669;28;20043;-67
2021/08/21 03:40:38;;;;;;;2.95;1.70;;;;;;;21.05;71.68;100981.78;5102155;28;20023;-67
2021/08/21 03:43:04;;;;;;;2.53;1.58;;;;;;;21.04;71.56;100983.63;5106628;28;20068;-67
2021/08/21 03:45:29;;;;;;;2.53;1.40;;;;;;;21.04;71.46;100988.16;5105990;28;20039;-67
2021/08/21 03:47:55;;;;;;;2.55;1.30;;;;;;;21.04;71.65;100986.31;5107200;28;20028;-67
2021/08/21 03:50:20;;;;;;;3.47;1.75;;;;;;;21.04;71.24;100985.50;5108562;28;20477;-67
2021/08/21 03:52:46;;;;;;;2.72;1.40;;;;;;;21.05;71.63;100979.13;5108274;28;20035;-67
2021/08/21 03:55:12;;;;;;;3.13;1.65;;;;;;;21.04;71.61;100980.16;5107684;28;20055;-67
2021/08/21 03:57:37;;;;;;;2.50;1.40;;;;;;;21.04;71.57;100975.63;5105330;28;20154;-67
2021/08/21 04:00:04;;;;;;;3.10;1.40;;;;;;;21.04;71.16;100982.81;5106261;28;20024;-67
2021/08/21 04:02:30;;;;;;;3.58;1.40;;;;;;;21.04;71.29;100982.81;5104876;28;20028;-67
2021/08/21 04:04:55;;;;;;;3.13;1.48;;;;;;;21.03;71.52;100984.66;5089142;28;20024;-67
2021/08/21 04:07:21;;;;;;;3.55;1.30;;;;;;;21.04;71.56;100980.16;5105745;28;20110;-67
2021/08/21 04:09:46;;;;;;;2.85;1.50;;;;;;;21.04;71.32;100986.31;5106526;28;20031;-67
2021/08/21 04:12:16;;;;;;;3.03;1.52;;;;;;;21.04;71.24;100982.81;5107350;28;20063;-67
2021/08/21 04:14:41;;;;;;;3.15;1.83;;;;;;;21.03;71.30;100981.19;5105335;28;20531;-67
2021/08/21 04:17:06;;;;;;;3.03;1.40;;;;;;;21.03;71.26;100981.19;5106742;28;20043;-67
2021/08/21 04:19:32;;;;;;;2.53;1.40;;;;;;;21.03;71.48;100984.66;5103933;28;20028;-67
2021/08/21 04:21:57;;;;;;;2.70;1.38;;;;;;;21.03;71.37;100986.50;5106675;28;20035;-67
2021/08/21 04:24:23;;;;;;;2.75;1.40;;;;;;;21.02;71.31;100984.88;5086210;28;20107;-67
2021/08/21 04:26:48;;;;;;;3.35;1.70;;;;;;;21.02;71.11;100985.69;5106621;28;20032;-67
2021/08/21 04:29:14;;;;;;;3.42;1.70;;;;;;;21.02;71.19;100987.53;5107397;28;20034;-67
2021/08/21 04:31:40;;;;;;;2.67;1.60;;;;;;;21.01;70.94;100984.06;5082949;28;20021;-67
2021/08/21 04:34:05;;;;;;;2.95;1.40;;;;;;;21.02;71.00;100983.03;5105573;28;20031;-67
2021/08/21 04:36:31;;;;;;;2.28;1.42;;;;;;;21.03;71.06;100989.19;5105875;28;20063;-67
2021/08/21 04:38:56;;;;;;;2.95;1.60;;;;;;;21.02;71.30;100992.88;5106500;28;20454;-67
2021/08/21 04:41:22;;;;;;;2.40;1.40;;;;;;;21.02;71.32;100993.69;5104533;28;20035;-67
2021/08/21 04:43:48;;;;;;;3.95;1.73;;;;;;;21.02;71.38;100984.88;5101963;28;20032;-67
2021/08/21 04:46:13;;;;;;;3.08;1.63;;;;;;;21.02;71.28;100984.88;5106281;28;20031;-67
2021/08/21 04:48:39;;;;;;;2.45;1.30;;;;;;;21.00;70.97;100979.75;5102742;28;20408;-67
2021/08/21 04:51:04;;;;;;;2.42;1.40;;;;;;;21.01;71.00;100967.22;5107596;28;20115;-67
2021/08/21 04:53:30;;;;;;;2.75;1.40;;;;;;;21.01;71.01;100973.38;5105279;28;20032;-67
2021/08/21 04:55:55;;;;;;;2.78;1.45;;;;;;;21.00;71.14;100977.06;5105732;28;20401;-67
2021/08/21 04:58:21;;;;;;;3.13;1.35;;;;;;;21.00;71.38;100974.41;5107458;28;20040;-67
2021/08/21 05:00:46;;;;;;;2.65;1.52;;;;;;;21.00;71.32;100979.75;5105140;28;20035;-67
2021/08/21 05:03:12;;;;;;;2.33;1.17;;;;;;;21.01;71.24;100973.38;5107552;28;20035;-67
2021/08/21 05:05:37;;;;;;;2.47;1.40;;;;;;;21.00;70.84;100970.91;5102567;28;20056;-67
2021/08/21 05:08:03;;;;;;;2.58;1.40;;;;;;;21.00;70.87;100976.25;5100786;28;20427;-67
2021/08/21 05:10:29;;;;;;;2.60;1.30;;;;;;;21.01;71.12;100975.22;5104818;28;20092;-67
2021/08/21 05:12:54;;;;;;;2.58;1.55;;;;;;;21.01;71.37;100976.06;5108676;28;20122;-67
2021/08/21 05:15:20;;;;;;;3.28;1.50;;;;;;;21.00;71.11;100979.75;5110814;28;20032;-67
2021/08/21 05:17:48;;;;;;;2.72;1.50;;;;;;;21.01;70.96;100980.56;5108825;28;20063;-67
2021/08/21 05:20:18;;;;;;;2.40;1.25;;;;;;;21.01;71.14;100981.38;5111183;28;20111;-67
2021/08/21 05:25:14;;;;;;;2.88;1.20;;;;;;;21.00;70.95;100981.59;5111383;28;20351;-67
2021/08/21 05:27:40;;;;;;;2.72;1.30;;;;;;;21.00;70.79;100978.91;5108539;28;20044;-67
2021/08/21 05:30:07;;;;;;;2.33;1.20;;;;;;;21.01;71.06;100977.91;5110303;28;20173;-67
2021/08/21 05:32:34;;;;;;;2.83;1.67;;;;;;;21.00;71.12;100973.59;5109542;28;20084;-67
2021/08/21 05:35:00;;;;;;;2.85;1.30;;;;;;;21.00;70.99;100981.59;5106155;28;20498;-67
2021/08/21 05:37:25;;;;;;;2.83;1.67;;;;;;;21.00;70.99;100977.06;5110047;28;20027;-67
2021/08/21 05:39:51;;;;;;;2.88;1.63;;;;;;;20.99;71.22;100978.09;5105720;28;20429;-68
2021/08/21 05:42:16;;;;;;;2.47;1.35;;;;;;;21.00;71.08;100978.91;5110312;28;20531;-67
2021/08/21 05:44:41;;;;;;;2.83;1.40;;;;;;;20.99;70.86;100990.59;5103796;28;20413;-67
2021/08/21 05:47:07;;;;;;;2.47;1.20;;;;;;;21.00;71.11;100978.91;5106466;28;20038;-67
2021/08/21 05:49:33;;;;;;;1.92;1.20;;;;;;;21.00;71.07;100981.59;5108621;28;20134;-67
2021/08/21 05:51:58;;;;;;;2.28;1.25;;;;;;;21.00;70.73;100978.91;5101164;28;20036;-67
2021/08/21 05:54:23;;;;;;;2.28;1.20;;;;;;;20.99;70.74;100979.91;5108305;28;20493;-67
2021/08/21 05:56:49;;;;;;;1.98;1.20;;;;;;;20.99;71.06;100987.91;5088698;28;20474;-67
2021/08/21 05:59:14;;;;;;;1.95;1.20;;;;;;;20.99;71.03;100977.25;5108421;28;20474;-67
2021/08/21 06:01:40;;;;;;;1.95;1.17;;;;;;;20.98;71.17;100989.75;5107122;28;20047;-67
2021/08/21 06:04:06;;;;;;;2.35;1.50;;;;;;;20.99;71.22;100988.78;5090585;28;20039;-67
2021/08/21 06:06:35;;;;;;;2.70;1.33;;;;;;;20.99;71.01;100985.25;5108462;28;20035;-67
2021/08/21 06:09:03;;;;;;;2.15;1.20;;;;;;;20.99;70.88;100987.91;5106736;28;20028;-68
2021/08/21 06:11:28;;;;;;;2.17;1.30;;;;;;;20.99;71.13;100987.91;5104917;28;20031;-68
2021/08/21 06:13:54;;;;;;;2.70;1.40;;;;;;;20.99;70.93;100987.91;5105086;28;20035;-68
2021/08/21 06:16:19;;;;;;;2.88;1.30;;;;;;;20.98;70.82;100989.75;5106926;28;20035;-68
2021/08/21 06:18:45;;;;;;;1.52;1.00;;;;;;;20.98;71.18;100988.94;5108012;28;20028;-68
2021/08/21 06:21:11;;;;;;;2.72;1.40;;;;;;;20.99;70.71;100987.91;5107822;28;20035;-68
2021/08/21 06:23:36;;;;;;;2.13;1.30;;;;;;;20.98;70.91;100984.44;5105170;28;20505;-67
2021/08/21 06:26:02;;;;;;;2.22;1.25;;;;;;;20.98;70.86;100991.59;5104258;28;20036;-67
2021/08/21 06:28:27;;;;;;;2.78;1.15;;;;;;;20.99;70.98;100988.78;5107602;28;20028;-67
2021/08/21 06:30:53;;;;;;;2.03;1.23;;;;;;;20.98;70.83;100988.94;5106105;28;20035;-67
2021/08/21 06:33:18;;;;;;;2.88;1.20;;;;;;;20.98;71.02;100989.75;5096538;28;20077;-68
2021/08/21 06:35:44;;;;;;;1.73;0.90;;;;;;;20.98;71.02;100988.94;5059972;28;1208480;-68
2021/08/21 06:38:09;;;;;;;1.77;1.10;;;;;;;20.99;70.73;100990.59;5054605;28;20519;-68
2021/08/21 06:40:35;;;;;;;2.60;1.25;;;;;;;20.98;70.71;100988.94;5105374;28;20084;-68
2021/08/21 06:43:00;;;;;;;2.42;1.23;;;;;;;20.99;70.73;100982.59;5102707;28;20113;-67
2021/08/21 06:45:26;;;;;;;1.70;1.10;;;;;;;20.97;70.75;100985.44;5089787;28;20050;-67
2021/08/21 06:47:54;;;;;;;1.73;0.98;;;;;;;20.98;70.75;100981.75;5103683;28;20034;-67
2021/08/21 06:50:20;;;;;;;2.10;1.33;;;;;;;20.98;70.94;100970.28;5106373;28;20028;-67
2021/08/21 06:52:46;;;;;;;2.03;1.13;;;;;;;20.98;70.96;100975.59;5109677;28;20028;-68
2021/08/21 06:55:12;;;;;;;2.45;1.20;;;;;;;20.98;70.75;100976.44;5107717;28;20114;-68
2021/08/21 06:57:37;;;;;;;1.60;1.10;;;;;;;20.98;70.61;100978.28;5108380;28;20046;-68
2021/08/21 07:00:03;;;;;;;2.95;1.23;;;;;;;20.97;70.61;100979.31;5107240;28;20055;-68
2021/08/21 07:02:29;;;;;;;2.53;1.20;;;;;;;20.98;70.63;100988.94;5057185;28;20040;-67
2021/08/21 07:04:54;;;;;;;2.67;1.20;;;;;;;20.97;70.53;100987.28;5088452;28;20032;-68
2021/08/21 07:07:20;;;;;;;2.15;1.35;;;;;;;20.97;70.87;100987.28;5104442;28;20034;-67
2021/08/21 07:09:45;;;;;;;1.88;1.13;;;;;;;20.97;70.52;100989.97;5073907;28;20039;-67
2021/08/21 07:12:11;;;;;;;2.20;1.20;;;;;;;20.97;70.78;100989.97;5107270;28;20043;-67
2021/08/21 07:14:36;;;;;;;2.20;1.20;;;;;;;20.95;70.65;100990.16;5107558;28;20032;-67
2021/08/21 07:17:02;;;;;;;1.67;0.95;;;;;;;20.97;70.58;100998.78;5108336;28;20087;-67
2021/08/21 07:19:27;;;;;;;2.22;1.30;;;;;;;20.98;70.75;100996.94;5105119;28;20156;-67
2021/08/21 07:21:53;;;;;;;1.63;1.10;;;;;;;20.97;70.77;100997.97;5109259;28;20092;-67
2021/08/21 07:24:22;;;;;;;2.10;1.25;;;;;;;20.96;70.54;100997.16;5106825;28;20069;-68
2021/08/21 07:26:48;;;;;;;1.88;1.05;;;;;;;20.97;70.72;101003.31;5107596;28;20062;-67
2021/08/21 07:29:13;;;;;;;1.90;1.10;;;;;;;20.97;70.66;101006.78;5108214;28;20034;-68
2021/08/21 07:31:39;;;;;;;1.98;1.25;;;;;;;20.97;70.53;101005.97;5108162;28;20027;-67
2021/08/21 07:34:05;;;;;;;1.65;1.00;;;;;;;20.95;70.80;101008.84;5103589;28;20047;-66
2021/08/21 07:36:30;;;;;;;1.83;1.05;;;;;;;20.95;70.64;101008.84;5111353;28;20039;-64
2021/08/21 07:38:56;;;;;;;2.85;1.35;;;;;;;20.96;70.73;101013.16;5107093;28;20391;-65
2021/08/21 07:41:21;;;;;;;1.92;1.00;;;;;;;20.97;70.70;101011.31;5101712;28;20108;-68
2021/08/21 07:43:47;;;;;;;1.70;0.98;;;;;;;20.98;70.86;101007.59;5080809;28;20200;-67
2021/08/21 07:46:12;;;;;;;3.15;1.10;;;;;;;20.98;71.08;101000.44;5072523;28;20055;-67
2021/08/21 07:48:38;;;;;;;2.75;1.17;;;;;;;20.99;71.23;101004.78;5081509;28;20041;-67
2021/08/21 07:51:04;;;;;;;2.65;1.20;;;;;;;21.00;71.64;101008.25;5092805;28;20047;-69
2021/08/21 07:53:30;;;;;;;2.95;1.10;;;;;;;21.01;71.43;101004.56;5083539;28;20069;-69
2021/08/21 07:55:55;;;;;;;2.33;1.42;;;;;;;21.02;71.46;101011.53;5085859;28;20036;-68
2021/08/21 07:58:21;;;;;;;2.58;1.00;;;;;;;21.02;71.57;101009.69;5101805;28;20179;-68
2021/08/21 08:00:46;;;;;;;2.70;1.00;;;;;;;21.04;72.13;101009.50;5099783;28;20055;-68
2021/08/21 08:03:14;;;;;;;3.25;1.15;;;;;;;21.04;71.87;101002.31;5103877;28;20036;-68
2021/08/21 08:05:41;;;;;;;5.95;1.02;;;;;;;21.06;72.23;101010.09;5101390;28;20039;-67
2021/08/21 08:08:06;;;;;;;2.17;1.10;;;;;;;21.06;72.42;101004.78;5103885;28;20383;-68
2021/08/21 08:10:32;;;;;;;4.32;1.02;;;;;;;21.05;72.26;101011.97;5084610;28;20038;-67
2021/08/21 08:12:57;;;;;;;1.85;0.90;;;;;;;21.05;72.19;101011.13;5105591;28;20122;-67
2021/08/21 08:15:23;;;;;;;1.52;0.95;;;;;;;21.06;72.20;101012.78;5092094;28;20028;-67
2021/08/21 08:17:49;;;;;;;1.23;0.80;;;;;;;21.05;72.24;101003.94;5090385;28;20082;-68
2021/08/21 08:20:14;;;;;;;3.55;1.13;;;;;;;21.06;72.43;101010.09;5087941;28;20035;-67
2021/08/21 08:22:40;;;;;;;6.07;1.35;;;;;;;21.06;72.74;101004.78;5103530;28;20044;-67
2021/08/21 08:25:07;;;;;;;4.85;1.20;;;;;;;21.06;72.19;101002.09;5085693;28;20032;-66
2021/08/21 08:27:33;;;;;;;3.65;1.10;;;;;;;21.07;72.34;101012.56;5101852;28;20081;-68
2021/08/21 08:29:58;;;;;;;3.80;1.27;;;;;;;21.07;72.48;101003.75;5100481;28;20040;-66
2021/08/21 08:32:24;;;;;;;5.70;1.20;;;;;;;21.06;72.46;100996.78;5085930;28;20062;-68
2021/08/21 08:34:49;;;;;;;2.55;1.20;;;;;;;21.06;72.34;101002.09;5098110;28;20047;-66
2021/08/21 08:37:15;;;;;;;4.85;1.45;;;;;;;21.07;72.40;101001.91;5105418;28;20040;-66
2021/08/21 08:39:41;;;;;;;5.38;1.40;;;;;;;21.06;72.53;101002.09;5087044;28;20126;-67
2021/08/21 08:42:08;;;;;;;10.23;2.13;;;;;;;21.08;72.57;100995.53;5092695;28;20072;-67
2021/08/21 08:44:35;;;;;;;6.80;1.33;;;;;;;21.08;72.42;101008.06;5071607;28;20019;-68
2021/08/21 08:47:01;;;;;;;4.72;1.65;;;;;;;21.08;72.59;101013.38;5098614;28;20408;-67
2021/08/21 08:49:27;;;;;;;4.78;1.73;;;;;;;21.08;72.33;101005.38;5108960;28;20113;-67
2021/08/21 08:51:53;;;;;;;5.32;1.85;;;;;;;21.08;72.48;101010.72;5092435;28;20060;-67
2021/08/21 08:54:19;;;;;;;8.43;2.22;;;;;;;21.07;72.70;101001.91;5081984;28;20042;-67
2021/08/21 08:56:44;;;;;;;4.63;1.52;;;;;;;21.08;72.36;101010.72;5087817;28;20032;-67
2021/08/21 08:59:10;;;;;;;4.57;2.03;;;;;;;21.07;72.28;101007.25;5099937;28;20078;-67
2021/08/21 09:01:35;;;;;;;6.60;1.92;;;;;;;21.06;72.44;101010.09;5097937;28;20138;-71
2021/08/21 09:04:23;;;;;;;13.30;2.92;;;;;;;21.04;72.66;101004.16;5085189;28;20399;-67
2021/08/21 09:06:49;;;;;;;5.57;1.60;;;;;;;21.07;72.17;101006.41;5100730;28;20035;-68
2021/08/21 09:09:20;;;;;;;10.80;2.17;;;;;;;21.05;72.48;101001.28;5106677;28;20032;-68
2021/08/21 09:11:49;;;;;;;7.22;2.13;;;;;;;21.05;72.15;101001.28;5099333;28;20552;-68
2021/08/21 09:14:31;;;;;;;8.15;1.77;;;;;;;21.03;72.40;101002.50;5101804;28;20031;-68
2021/08/21 09:17:18;;;;;;;4.43;1.67;;;;;;;21.01;72.09;101004.56;5100464;28;20032;-67
2021/08/21 09:19:44;;;;;;;6.63;2.30;;;;;;;21.05;72.36;101003.13;5103810;28;20027;-68
2021/08/21 09:22:11;;;;;;;7.75;2.35;;;;;;;21.05;72.35;101011.13;5097368;28;20086;-67
2021/08/21 09:24:39;;;;;;;5.70;1.80;;;;;;;21.04;72.08;101006.81;5103931;28;20063;-67
2021/08/21 09:27:14;;;;;;;6.03;2.08;;;;;;;21.02;72.17;101011.53;5099683;28;20090;-68
2021/08/21 09:29:40;;;;;;;6.40;1.92;;;;;;;21.03;71.98;101003.34;5102410;28;20048;-68
2021/08/21 09:32:07;;;;;;;4.85;2.13;;;;;;;21.04;72.07;100998.81;5099195;28;20474;-69
2021/08/21 09:34:32;;;;;;;4.72;1.77;;;;;;;21.04;72.07;101010.31;5103485;28;20076;-69
2021/08/21 09:36:58;;;;;;;3.38;1.38;;;;;;;21.04;72.04;101004.16;5086126;28;20403;-68
2021/08/21 09:39:38;;;;;;;4.40;1.65;;;;;;;21.01;72.00;101004.56;5105781;28;20039;-68
2021/08/21 09:42:07;;;;;;;5.97;1.63;;;;;;;21.03;71.61;100998.00;5086440;28;20050;-68
2021/08/21 09:44:41;;;;;;;5.45;1.55;;;;;;;21.02;71.91;101004.38;5094799;28;20032;-68
2021/08/21 09:47:14;;;;;;;4.03;1.63;;;;;;;21.02;71.60;101001.69;5102629;28;20085;-68
2021/08/21 09:49:41;;;;;;;4.50;1.52;;;;;;;21.03;71.84;101002.50;5090768;28;20043;-68
2021/08/21 09:52:11;;;;;;;3.22;1.65;;;;;;;21.03;71.74;101003.34;5091187;28;20036;-68
2021/08/21 09:54:37;;;;;;;4.15;1.30;;;;;;;21.04;71.76;101006.81;5083544;28;20384;-68
2021/08/21 09:57:03;;;;;;;5.65;1.63;;;;;;;21.03;71.82;101006.00;5094204;28;20035;-68
2021/08/21 09:59:36;;;;;;;4.68;1.40;;;;;;;21.03;71.83;101008.66;5100365;28;20054;-68
2021/08/21 10:02:05;;;;;;;3.83;1.58;;;;;;;21.03;71.36;101013.19;5110053;28;20034;-68
2021/08/21 10:04:32;;;;;;;5.40;1.45;;;;;;;21.02;71.68;101017.69;5111809;28;20394;-68
2021/08/21 10:06:58;;;;;;;4.32;1.40;;;;;;;21.02;71.60;101015.03;5111360;28;20040;-68
2021/08/21 10:09:27;;;;;;;3.70;1.20;;;;;;;21.03;71.51;101018.53;5097891;28;20040;-69
2021/08/21 10:11:54;;;;;;;2.90;1.15;;;;;;;21.03;71.38;101018.53;5111464;28;20561;-68
2021/08/21 10:14:21;;;;;;;6.03;1.50;;;;;;;21.03;71.54;101018.53;5100504;28;20114;-69
2021/08/21 10:16:48;;;;;;;4.22;1.27;;;;;;;21.03;71.83;101015.84;5108470;28;20027;-69
2021/08/21 10:19:18;;;;;;;2.83;1.20;;;;;;;21.03;71.60;101015.84;5084844;28;20024;-69
2021/08/21 10:21:53;;;;;;;4.20;1.25;;;;;;;21.02;71.76;101014.22;5105624;28;20437;-70
2021/08/21 10:24:38;;;;;;;3.55;1.17;;;;;;;20.99;72.07;101014.59;5103976;28;20028;-69
2021/08/21 10:27:07;;;;;;;3.58;0.98;;;;;;;21.03;71.50;101013.19;5106242;28;20031;-68
2021/08/21 10:29:33;;;;;;;2.53;1.23;;;;;;;21.03;71.44;101021.19;5088562;28;20031;-70
2021/08/21 10:31:58;;;;;;;3.60;1.15;;;;;;;21.03;71.56;101014.00;5094098;28;20526;-68
2021/08/21 10:34:24;;;;;;;2.90;1.10;;;;;;;21.02;71.82;101015.03;5104320;28;20046;-68
2021/08/21 10:36:51;;;;;;;2.95;1.05;;;;;;;21.02;72.05;101009.69;5087206;28;20171;-68
2021/08/21 10:39:30;;;;;;;14.75;2.97;;;;;;;21.02;72.42;101007.03;5099524;28;20027;-68
2021/08/21 10:41:56;;;;;;;25.25;7.93;;;;;;;21.03;72.38;101008.66;5096031;28;20032;-68
2021/08/21 10:44:43;;;;;;;128.43;102.13;;;;;;;21.01;72.75;101009.91;5099941;28;20027;-68
2021/08/21 10:47:34;;;;;;;112.43;92.35;;;;;;;21.02;73.04;101009.69;5097987;28;20035;-68
2021/08/21 10:50:25;;;;;;;103.10;84.72;;;;;;;21.03;73.29;101011.34;5103428;28;20498;-70
2021/08/21 10:52:58;;;;;;;84.93;68.78;;;;;;;21.08;72.91;101016.88;5094703;28;20054;-68
2021/08/21 10:55:38;;;;;;;76.90;63.67;;;;;;;21.09;73.22;101012.38;5092706;28;20034;-69
2021/08/21 10:58:13;;;;;;;78.88;64.13;;;;;;;21.09;72.99;101007.84;5098944;28;20077;-68
2021/08/21 11:00:39;;;;;;;69.75;59.28;;;;;;;21.09;73.12;101013.19;5103131;28;20040;-69
2021/08/21 11:03:12;;;;;;;54.17;42.40;;;;;;;21.09;72.95;101007.03;5100240;28;20035;-68
2021/08/21 11:05:57;;;;;;;48.85;37.65;;;;;;;21.05;73.02;101008.47;5090869;28;20095;-68
2021/08/21 11:08:27;;;;;;;36.45;31.70;;;;;;;21.08;73.05;101002.72;5108179;28;20038;-68
2021/08/21 11:11:08;;;;;;;39.85;33.83;;;;;;;21.03;72.97;101005.19;5093395;28;20054;-69
2021/08/21 11:16:23;;;;;;;27.33;24.23;;;;;;;21.04;72.97;101015.66;5101353;28;20043;-68
2021/08/21 11:18:50;;;;;;;25.65;19.33;;;;;;;21.03;72.83;101015.84;5101337;28;20070;-68
2021/08/21 11:21:37;;;;;;;21.50;16.95;;;;;;;20.98;72.85;101012.94;5101794;28;20028;-69
2021/08/21 11:24:21;;;;;;;17.77;13.15;;;;;;;20.99;72.71;101012.78;5071762;28;20036;-68
2021/08/21 11:26:47;;;;;;;12.93;11.35;;;;;;;20.98;72.30;101005.75;5070189;28;20031;-68
2021/08/21 11:29:15;;;;;;;13.30;9.05;;;;;;;20.97;72.82;101011.31;5095733;28;20066;-67